East Kingston, New Hampshire
Current Conditions -  °F | °C
As of 7:58 AM on Sunday 23 Nov 2014 (Local Time) from KPSM Reporting Station
Broken Clouds Broken Clouds  
Wind Chill: 39°   Ceiling: 12000
Heat Index: 42°   Visibility: 10mi
Dew Point: 32°   Wind: 5mph
Humidity: 69%   Direction: 210°SSW
Pressure: 30.07"   Gusts: NA
Location:  42.93°N, 71.02°W
Report Text: KPSM 231258Z 21004KT 10SM SCT080 BKN120 BKN250 06/00 A3007 RMK AO2A SLP187 T00550002
Loading
Personal Weather Stations






























Interactive Weather Map New forecast layout! Learn more

10-Day Weather Forecast

Advertisements
Track Severe Weather on mobile